createdAt,value
2022-10-18T00:02:38.126Z,101947.03
2022-10-18T00:05:23.241Z,101943.19
2022-10-18T00:08:08.424Z,101945.69
2022-10-18T00:10:53.756Z,101943.66
2022-10-18T00:13:39.305Z,101942.97
2022-10-18T00:16:24.531Z,101944.50
2022-10-18T00:19:09.680Z,101940.31
2022-10-18T00:21:54.695Z,101933.97
2022-10-18T00:24:39.748Z,101928.97
2022-10-18T00:27:24.802Z,101918.41
2022-10-18T00:30:10.250Z,101917.06
2022-10-18T00:32:55.362Z,101915.06
2022-10-18T00:35:40.290Z,101918.25
2022-10-18T00:38:25.263Z,101922.56
2022-10-18T00:41:12.826Z,101916.25
2022-10-18T00:43:57.921Z,101916.09
2022-10-18T00:46:45.784Z,101920.59
2022-10-18T00:49:35.247Z,101915.41
2022-10-18T00:52:29.306Z,101913.44
2022-10-18T00:55:14.402Z,101914.91
2022-10-18T00:58:00.468Z,101916.56
2022-10-18T01:00:45.287Z,101920.59
2022-10-18T01:03:30.794Z,101921.06
2022-10-18T01:06:15.772Z,101916.03
2022-10-18T01:09:14.809Z,101914.53
2022-10-18T01:12:28.628Z,101908.72
2022-10-18T01:15:26.993Z,101905.88
2022-10-18T01:18:27.435Z,101898.38
2022-10-18T01:21:42.888Z,101888.00
2022-10-18T01:28:13.123Z,101898.69
2022-10-18T01:31:04.842Z,101897.84
2022-10-18T01:33:56.870Z,101903.34
2022-10-18T01:36:49.491Z,101896.34
2022-10-18T01:39:39.914Z,101905.84
2022-10-18T01:42:25.685Z,101902.00
2022-10-18T01:45:13.854Z,101896.66
2022-10-18T01:48:00.382Z,101902.34
2022-10-18T01:50:45.303Z,101895.66
2022-10-18T01:53:33.397Z,101900.00
2022-10-18T01:56:27.705Z,101903.69
2022-10-18T01:59:24.079Z,101903.53
2022-10-18T02:02:24.770Z,101900.00
2022-10-18T02:05:22.774Z,101897.16
2022-10-18T02:08:45.521Z,101894.16
2022-10-18T02:11:32.919Z,101893.84
2022-10-18T02:14:19.483Z,101895.84
2022-10-18T02:17:08.593Z,101899.34
2022-10-18T02:19:55.654Z,101902.03
2022-10-18T02:22:45.707Z,101895.19
2022-10-18T02:25:31.921Z,101901.38
2022-10-18T02:28:17.189Z,101902.75
2022-10-18T02:31:10.563Z,101910.75
2022-10-18T02:34:04.586Z,101908.91
2022-10-18T02:36:55.656Z,101912.41
2022-10-18T02:39:45.635Z,101914.25
2022-10-18T02:42:46.604Z,101909.22
2022-10-18T02:45:32.713Z,101896.22
2022-10-18T02:48:17.970Z,101899.69
2022-10-18T02:51:03.179Z,101901.56
2022-10-18T02:53:48.009Z,101909.56
2022-10-18T02:56:33.128Z,101911.44
2022-10-18T02:59:18.276Z,101918.78
2022-10-18T03:02:03.149Z,101912.75
2022-10-18T03:04:47.880Z,101917.94
2022-10-18T03:07:33.222Z,101917.94
2022-10-18T03:10:18.574Z,101917.59
2022-10-18T03:13:03.782Z,101920.41
2022-10-18T03:15:48.751Z,101924.59
2022-10-18T03:18:33.829Z,101927.28
2022-10-18T03:21:18.928Z,101922.94
2022-10-18T03:24:04.347Z,101922.25
2022-10-18T03:26:49.428Z,101924.59
2022-10-18T03:29:34.643Z,101920.59
2022-10-18T03:32:19.613Z,101911.22
2022-10-18T03:35:06.028Z,101911.53
2022-10-18T03:37:51.088Z,101904.53
2022-10-18T03:40:36.363Z,101891.66
2022-10-18T03:43:22.007Z,101896.19
2022-10-18T03:46:07.316Z,101893.16
2022-10-18T03:48:52.482Z,101900.72
2022-10-18T03:51:37.451Z,101899.69
2022-10-18T03:54:22.666Z,101899.53
2022-10-18T03:57:07.673Z,101889.00
2022-10-18T03:59:52.618Z,101894.31
2022-10-18T04:02:37.868Z,101888.66
2022-10-18T04:05:24.073Z,101906.91
2022-10-18T04:08:08.999Z,101906.91
2022-10-18T04:10:54.123Z,101912.06
2022-10-18T04:13:39.116Z,101906.53
2022-10-18T04:16:23.973Z,101904.06
2022-10-18T04:19:08.946Z,101912.25
2022-10-18T04:21:54.038Z,101916.56
2022-10-18T04:24:39.382Z,101910.56
2022-10-18T04:27:25.297Z,101905.22
2022-10-18T04:30:10.841Z,101913.22
2022-10-18T04:32:55.742Z,101909.88
2022-10-18T04:35:40.581Z,101905.34
2022-10-18T04:38:25.623Z,101910.69
2022-10-18T04:41:10.747Z,101923.91
2022-10-18T04:43:55.751Z,101921.91
2022-10-18T04:46:40.963Z,101915.72
2022-10-18T04:49:25.780Z,101918.38
2022-10-18T04:52:11.380Z,101914.38
2022-10-18T04:54:56.353Z,101920.72
2022-10-18T04:57:41.415Z,101915.06
2022-10-18T05:00:26.547Z,101921.91
2022-10-18T05:03:13.473Z,101927.91
2022-10-18T05:06:01.773Z,101928.94
2022-10-18T05:08:48.895Z,101928.25
2022-10-18T05:11:33.998Z,101941.25
2022-10-18T05:14:19.184Z,101937.25
2022-10-18T05:17:04.179Z,101933.59
2022-10-18T05:19:49.263Z,101935.25
2022-10-18T05:22:34.447Z,101934.28
2022-10-18T05:25:19.848Z,101937.59
2022-10-18T05:28:10.827Z,101941.97
2022-10-18T05:31:02.660Z,101945.63
2022-10-18T05:33:48.020Z,101946.47
2022-10-18T05:36:33.238Z,101938.59
2022-10-18T05:39:18.540Z,101940.94
2022-10-18T05:42:04.340Z,101944.94
2022-10-18T05:44:49.475Z,101943.13
2022-10-18T05:50:20.688Z,101948.09
2022-10-18T05:53:12.087Z,101957.25
2022-10-18T05:56:04.001Z,101941.22
2022-10-18T05:58:52.068Z,101956.94
2022-10-18T06:01:38.794Z,101961.97
2022-10-18T06:04:23.640Z,101968.47
2022-10-18T06:07:12.771Z,101959.47
2022-10-18T06:09:57.579Z,101964.50
2022-10-18T06:12:42.394Z,101967.47
2022-10-18T06:15:27.532Z,101963.66
2022-10-18T06:18:12.581Z,101951.81
2022-10-18T06:20:59.040Z,101958.31
2022-10-18T06:23:47.747Z,101959.81
2022-10-18T06:26:32.835Z,101958.66
2022-10-18T06:29:18.031Z,101964.84
2022-10-18T06:32:03.822Z,101958.34
2022-10-18T06:34:48.904Z,101956.16
2022-10-18T06:37:35.553Z,101950.47
2022-10-18T06:40:20.608Z,101959.31
2022-10-18T06:43:20.029Z,101958.34
2022-10-18T06:46:08.112Z,101963.38
2022-10-18T06:48:53.229Z,101957.84
2022-10-18T06:51:39.142Z,101962.34
2022-10-18T06:54:23.852Z,101965.00
2022-10-18T06:57:09.368Z,101967.69
2022-10-18T06:59:54.256Z,101977.91
2022-10-18T07:02:41.129Z,101982.94
2022-10-18T07:05:26.409Z,101983.75
2022-10-18T07:08:11.397Z,101986.59
2022-10-18T07:10:57.070Z,101989.94
2022-10-18T07:13:42.074Z,101994.13
2022-10-18T07:16:26.998Z,102001.28
2022-10-18T07:19:12.140Z,102008.50
2022-10-18T07:21:57.295Z,102015.00
2022-10-18T07:24:42.032Z,102017.66
2022-10-18T07:27:27.124Z,102007.78
2022-10-18T07:30:12.439Z,102008.81
2022-10-18T07:32:57.501Z,102013.47
2022-10-18T07:35:42.450Z,102022.84
2022-10-18T07:38:27.477Z,102033.34
2022-10-18T07:41:13.785Z,102031.38
2022-10-18T07:43:59.081Z,102028.25
2022-10-18T07:46:43.817Z,102036.44
2022-10-18T07:49:28.995Z,102044.50
2022-10-18T07:52:14.178Z,102049.78
2022-10-18T07:54:59.274Z,102059.94
2022-10-18T07:57:44.054Z,102049.63
2022-10-18T08:00:29.263Z,102054.47
2022-10-18T08:03:14.336Z,102059.69
2022-10-18T08:05:59.593Z,102057.00
2022-10-18T08:08:45.684Z,102058.31
2022-10-18T08:11:30.823Z,102061.81
2022-10-18T08:14:16.109Z,102060.88
2022-10-18T08:17:01.184Z,102062.13
2022-10-18T08:20:04.787Z,102066.50
2022-10-18T08:22:59.869Z,102063.97
2022-10-18T08:25:45.603Z,102064.09
2022-10-18T08:28:30.951Z,102066.78
2022-10-18T08:31:17.755Z,102065.16
2022-10-18T08:34:02.759Z,102066.69
2022-10-18T08:36:47.606Z,102071.53
2022-10-18T08:39:32.781Z,102074.22
2022-10-18T08:42:58.727Z,102079.84
2022-10-18T08:45:44.194Z,102084.56
2022-10-18T08:48:43.170Z,102086.59
2022-10-18T08:51:55.024Z,102082.91
2022-10-18T08:55:08.031Z,102087.31
2022-10-18T08:57:53.114Z,102095.00
2022-10-18T09:00:43.975Z,102098.03
2022-10-18T09:03:57.220Z,102101.56
2022-10-18T09:07:05.668Z,102101.88
2022-10-18T09:10:19.931Z,102113.44
2022-10-18T09:13:42.125Z,102113.44
2022-10-18T09:16:45.173Z,102112.78
2022-10-18T09:19:55.666Z,102109.47
2022-10-18T09:22:49.724Z,102115.47
2022-10-18T09:25:37.236Z,102116.47
2022-10-18T09:28:42.830Z,102110.81
2022-10-18T09:31:40.719Z,102122.84
2022-10-18T09:34:42.522Z,102122.00
2022-10-18T09:37:30.262Z,102116.63
2022-10-18T09:40:21.308Z,102115.38
2022-10-18T09:43:13.400Z,102117.75
2022-10-18T09:45:58.980Z,102114.44
2022-10-18T09:48:49.932Z,102115.47
2022-10-18T09:51:37.639Z,102125.16
2022-10-18T09:54:35.791Z,102131.31
2022-10-18T09:57:32.296Z,102138.00
2022-10-18T10:00:27.924Z,102128.91
2022-10-18T10:03:14.636Z,102131.44
2022-10-18T10:06:24.890Z,102128.28
2022-10-18T10:09:17.942Z,102135.16
2022-10-18T10:12:03.183Z,102136.97
2022-10-18T10:14:48.043Z,102138.16
2022-10-18T10:17:34.438Z,102136.50
2022-10-18T10:20:48.475Z,102143.03
2022-10-18T10:23:43.954Z,102143.34
2022-10-18T10:26:33.788Z,102144.53
2022-10-18T10:29:46.494Z,102154.41
2022-10-18T10:32:45.573Z,102151.88
2022-10-18T10:38:37.311Z,102158.84
2022-10-18T10:41:23.983Z,102156.69
2022-10-18T10:44:21.153Z,102160.34
2022-10-18T10:47:06.674Z,102159.84
2022-10-18T10:49:52.394Z,102161.03
2022-10-18T10:52:41.108Z,102162.22
2022-10-18T10:55:35.819Z,102164.22
2022-10-18T10:58:21.588Z,102168.72
2022-10-18T11:01:30.963Z,102161.22
2022-10-18T11:04:26.207Z,102170.09
2022-10-18T11:07:36.832Z,102173.41
2022-10-18T11:10:25.623Z,102170.75
2022-10-18T11:13:32.356Z,102168.44
2022-10-18T11:16:33.790Z,102175.91
2022-10-18T11:19:34.032Z,102183.44
2022-10-18T11:22:22.606Z,102180.44
2022-10-18T11:25:13.145Z,102171.78
2022-10-18T11:28:09.458Z,102163.91
2022-10-18T11:31:21.640Z,102151.91
2022-10-18T11:34:25.026Z,102161.44
2022-10-18T11:37:38.400Z,102160.59
2022-10-18T11:41:00.208Z,102152.88
2022-10-18T11:44:04.092Z,102142.00
2022-10-18T11:47:12.211Z,102151.78
2022-10-18T11:50:17.941Z,102144.94
2022-10-18T11:53:30.842Z,102141.41
2022-10-18T11:56:53.424Z,102142.75
2022-10-18T11:59:51.272Z,102145.78
2022-10-18T12:02:47.830Z,102139.06
2022-10-18T12:05:36.880Z,102138.75
2022-10-18T12:08:29.163Z,102135.41
2022-10-18T12:11:17.779Z,102132.91
2022-10-18T12:14:05.773Z,102130.91
2022-10-18T12:16:58.417Z,102126.72
2022-10-18T12:19:55.968Z,102131.88
2022-10-18T12:22:59.257Z,102129.69
2022-10-18T12:25:52.641Z,102127.53
2022-10-18T12:28:52.624Z,102128.19
2022-10-18T12:31:45.818Z,102124.34
2022-10-18T12:34:36.388Z,102119.75
2022-10-18T12:37:24.624Z,102122.81
2022-10-18T12:40:18.541Z,102113.63
2022-10-18T12:43:23.322Z,102121.47
2022-10-18T12:46:13.550Z,102116.31
2022-10-18T12:49:04.596Z,102122.69
2022-10-18T12:51:52.806Z,102124.03
2022-10-18T12:54:39.466Z,102116.16
2022-10-18T12:57:24.817Z,102125.69
2022-10-18T13:00:29.967Z,102121.69
2022-10-18T13:03:17.975Z,102122.28
2022-10-18T13:06:06.662Z,102126.81
2022-10-18T13:09:19.300Z,102116.00
2022-10-18T13:12:09.994Z,102113.59
2022-10-18T13:15:34.489Z,102114.84
2022-10-18T13:18:46.471Z,102113.94
2022-10-18T13:22:04.012Z,102119.41
2022-10-18T13:25:04.095Z,102112.06
2022-10-18T13:28:05.321Z,102113.41
2022-10-18T13:31:14.572Z,102121.06
2022-10-18T13:34:25.304Z,102119.44
2022-10-18T13:37:10.321Z,102118.78
2022-10-18T13:40:25.045Z,102118.34
2022-10-18T13:43:54.935Z,102119.66
2022-10-18T13:46:40.073Z,102116.47
2022-10-18T13:49:40.122Z,102127.03
2022-10-18T13:52:40.287Z,102132.22
2022-10-18T13:56:01.747Z,102127.69
2022-10-18T13:59:13.794Z,102132.22
2022-10-18T14:02:36.315Z,102132.88
2022-10-18T14:05:49.119Z,102131.88
2022-10-18T14:08:43.957Z,102138.56
2022-10-18T14:11:46.971Z,102130.38
2022-10-18T14:14:42.964Z,102134.22
2022-10-18T14:17:42.124Z,102135.75
2022-10-18T14:20:36.903Z,102135.06
2022-10-18T14:23:34.327Z,102131.75
2022-10-18T14:26:20.816Z,102130.91
2022-10-18T14:29:07.626Z,102137.25
2022-10-18T14:31:54.320Z,102136.72
2022-10-18T14:34:43.830Z,102136.91
2022-10-18T14:37:36.545Z,102134.91
2022-10-18T14:40:40.334Z,102137.25
2022-10-18T14:43:25.478Z,102126.06
2022-10-18T14:46:16.024Z,102136.41
2022-10-18T14:49:04.203Z,102138.59
2022-10-18T14:51:52.971Z,102133.91
2022-10-18T14:54:38.191Z,102135.59
2022-10-18T14:57:27.935Z,102148.28
2022-10-18T15:03:14.864Z,102141.28
2022-10-18T15:06:03.033Z,102129.88
2022-10-18T15:08:53.514Z,102134.91
2022-10-18T15:11:41.307Z,102137.41
2022-10-18T15:14:28.203Z,102137.75
2022-10-18T15:17:20.631Z,102137.25
2022-10-18T15:20:39.315Z,102135.06
2022-10-18T15:23:31.192Z,102143.63
2022-10-18T15:26:23.742Z,102132.81
2022-10-18T15:29:17.135Z,102131.81
2022-10-18T15:32:18.805Z,102132.34
2022-10-18T15:35:09.667Z,102141.34
2022-10-18T15:37:56.904Z,102131.13
2022-10-18T15:40:43.134Z,102140.44
2022-10-18T15:43:28.063Z,102137.22
2022-10-18T15:46:29.839Z,102135.88
2022-10-18T15:49:23.721Z,102133.31
2022-10-18T15:52:08.669Z,102137.81
2022-10-18T15:54:54.069Z,102136.31
2022-10-18T15:57:38.947Z,102141.28
2022-10-18T16:00:23.987Z,102149.09
2022-10-18T16:03:09.744Z,102144.19
2022-10-18T16:06:05.935Z,102142.16
2022-10-18T16:08:52.969Z,102144.44
2022-10-18T16:11:38.015Z,102148.03
2022-10-18T16:14:22.793Z,102150.19
2022-10-18T16:17:16.803Z,102153.41
2022-10-18T16:20:01.874Z,102152.13
2022-10-18T16:22:46.967Z,102153.22
2022-10-18T16:25:32.192Z,102155.13
2022-10-18T16:28:20.644Z,102155.22
2022-10-18T16:31:05.854Z,102154.47
2022-10-18T16:33:51.879Z,102154.47
2022-10-18T16:36:37.570Z,102150.88
2022-10-18T16:39:23.165Z,102158.50
2022-10-18T16:42:08.028Z,102154.63
2022-10-18T16:44:54.917Z,102161.41
2022-10-18T16:47:39.968Z,102159.34
2022-10-18T16:50:25.282Z,102166.28
2022-10-18T16:53:10.933Z,102175.00
2022-10-18T16:56:00.740Z,102175.59
2022-10-18T16:58:46.444Z,102181.34
2022-10-18T17:01:31.360Z,102181.25
2022-10-18T17:04:16.449Z,102183.69
2022-10-18T17:07:02.981Z,102194.94
2022-10-18T17:09:48.304Z,102197.44
2022-10-18T17:12:33.765Z,102197.75
2022-10-18T17:15:18.654Z,102202.00
2022-10-18T17:18:03.915Z,102196.44
2022-10-18T17:20:50.139Z,102198.94
2022-10-18T17:23:35.174Z,102205.19
2022-10-18T17:26:30.678Z,102214.72
2022-10-18T17:29:16.015Z,102206.19
2022-10-18T17:32:01.279Z,102215.47
2022-10-18T17:34:46.002Z,102209.44
2022-10-18T17:37:31.436Z,102218.25
2022-10-18T17:40:16.724Z,102213.94
2022-10-18T17:43:01.557Z,102221.22
2022-10-18T17:45:48.485Z,102218.69
2022-10-18T17:48:33.602Z,102217.28
2022-10-18T17:51:18.501Z,102222.50
2022-10-18T17:54:04.967Z,102210.03
2022-10-18T17:56:53.868Z,102219.13
2022-10-18T17:59:39.877Z,102206.50
2022-10-18T18:02:25.108Z,102214.09
2022-10-18T18:05:10.538Z,102218.03
2022-10-18T18:07:56.864Z,102208.50
2022-10-18T18:10:44.030Z,102218.03
2022-10-18T18:13:29.233Z,102226.28
2022-10-18T18:16:20.909Z,102224.72
2022-10-18T18:19:09.633Z,102229.50
2022-10-18T18:21:55.705Z,102236.06
2022-10-18T18:24:40.976Z,102228.78
2022-10-18T18:27:25.886Z,102233.41
2022-10-18T18:30:11.032Z,102225.28
2022-10-18T18:32:55.887Z,102222.75
2022-10-18T18:35:41.068Z,102225.97
2022-10-18T18:38:26.677Z,102225.28
2022-10-18T18:41:14.435Z,102229.59
2022-10-18T18:44:01.896Z,102241.38
2022-10-18T18:46:48.043Z,102229.31
2022-10-18T18:49:33.264Z,102232.81
2022-10-18T18:52:18.162Z,102230.00
2022-10-18T18:55:03.572Z,102224.69
2022-10-18T18:57:48.694Z,102231.81
2022-10-18T19:00:33.650Z,102227.13
2022-10-18T19:03:18.891Z,102221.28
2022-10-18T19:06:09.752Z,102221.44
2022-10-18T19:09:01.341Z,102223.66
2022-10-18T19:11:47.647Z,102223.94
2022-10-18T19:14:32.654Z,102222.25
2022-10-18T19:17:17.876Z,102220.69
2022-10-18T19:20:04.940Z,102226.53
2022-10-18T19:22:49.939Z,102227.53
2022-10-18T19:25:34.615Z,102225.16
2022-10-18T19:28:19.649Z,102220.38
2022-10-18T19:31:05.439Z,102226.25
2022-10-18T19:33:59.269Z,102221.31
2022-10-18T19:36:46.660Z,102220.03
2022-10-18T19:39:34.233Z,102221.03
2022-10-18T19:42:24.203Z,102221.03
2022-10-18T19:45:13.881Z,102222.69
2022-10-18T19:47:58.751Z,102216.41
2022-10-18T19:50:43.852Z,102222.09
2022-10-18T19:53:29.088Z,102228.41
2022-10-18T19:56:21.231Z,102223.34
2022-10-18T19:59:06.389Z,102227.38
2022-10-18T20:01:51.473Z,102231.59
2022-10-18T20:04:38.112Z,102227.91
2022-10-18T20:07:23.270Z,102236.72
2022-10-18T20:10:09.862Z,102239.63
2022-10-18T20:12:54.599Z,102232.63
2022-10-18T20:15:39.734Z,102236.44
2022-10-18T20:18:25.101Z,102237.38
2022-10-18T20:21:15.846Z,102237.75
2022-10-18T20:24:04.469Z,102232.31
2022-10-18T20:26:49.590Z,102235.31
2022-10-18T20:29:35.548Z,102237.47
2022-10-18T20:32:20.644Z,102243.34
2022-10-18T20:35:05.911Z,102237.03
2022-10-18T20:37:51.214Z,102242.41
2022-10-18T20:40:36.114Z,102237.09
2022-10-18T20:43:21.169Z,102240.06
2022-10-18T20:46:07.789Z,102242.41
2022-10-18T20:48:54.102Z,102251.47
2022-10-18T20:51:39.236Z,102247.13
2022-10-18T20:54:24.208Z,102250.38
2022-10-18T20:57:09.135Z,102245.47
2022-10-18T20:59:54.239Z,102244.81
2022-10-18T21:02:39.283Z,102252.06
2022-10-18T21:05:24.488Z,102247.34
2022-10-18T21:08:09.444Z,102248.75
2022-10-18T21:10:55.597Z,102244.84
2022-10-18T21:13:40.824Z,102242.13
2022-10-18T21:16:26.371Z,102235.50
2022-10-18T21:19:19.665Z,102240.34
2022-10-18T21:22:04.901Z,102244.09
2022-10-18T21:24:50.518Z,102244.59
2022-10-18T21:27:36.053Z,102240.00
2022-10-18T21:30:21.125Z,102240.84
2022-10-18T21:33:07.026Z,102236.88
2022-10-18T21:35:52.279Z,102239.16
2022-10-18T21:38:37.475Z,102235.56
2022-10-18T21:41:22.985Z,102238.06
2022-10-18T21:44:10.695Z,102236.66
2022-10-18T21:46:55.664Z,102238.13
2022-10-18T21:49:40.752Z,102238.94
2022-10-18T21:52:25.780Z,102241.50
2022-10-18T21:55:13.742Z,102239.72
2022-10-18T21:57:58.866Z,102234.66
2022-10-18T22:00:43.950Z,102241.13
2022-10-18T22:03:29.254Z,102241.25
2022-10-18T22:06:15.229Z,102231.63
2022-10-18T22:09:03.678Z,102228.25
2022-10-18T22:11:52.590Z,102227.88
2022-10-18T22:14:37.728Z,102223.19
2022-10-18T22:17:23.530Z,102223.69
2022-10-18T22:20:09.582Z,102223.91
2022-10-18T22:22:55.508Z,102221.88
2022-10-18T22:25:40.751Z,102226.22
2022-10-18T22:28:26.079Z,102220.31
2022-10-18T22:31:17.119Z,102217.69
2022-10-18T22:34:05.388Z,102225.22
2022-10-18T22:36:50.855Z,102221.16
2022-10-18T22:39:35.719Z,102223.59
2022-10-18T22:42:20.781Z,102218.28
2022-10-18T22:45:06.434Z,102212.13
2022-10-18T22:47:51.321Z,102220.09
2022-10-18T22:50:36.461Z,102214.16
2022-10-18T22:53:21.692Z,102211.63
2022-10-18T22:56:09.009Z,102211.97
2022-10-18T22:58:53.875Z,102215.72
2022-10-18T23:01:39.046Z,102217.88
2022-10-18T23:04:24.133Z,102210.56
2022-10-18T23:07:08.832Z,102217.78
2022-10-18T23:09:53.994Z,102217.03
2022-10-18T23:12:38.864Z,102216.78
2022-10-18T23:15:23.808Z,102210.19
2022-10-18T23:18:08.702Z,102211.25
2022-10-18T23:21:01.301Z,102213.91
2022-10-18T23:23:47.053Z,102214.97
2022-10-18T23:26:32.356Z,102214.97
2022-10-18T23:29:17.357Z,102212.81
2022-10-18T23:32:02.251Z,102212.09
2022-10-18T23:34:47.247Z,102206.28
2022-10-18T23:37:33.039Z,102202.22
2022-10-18T23:40:18.150Z,102196.69
2022-10-18T23:43:02.946Z,102201.59
2022-10-18T23:45:48.140Z,102204.25
2022-10-18T23:48:34.156Z,102204.47
2022-10-18T23:51:19.329Z,102209.19
2022-10-18T23:54:04.126Z,102203.91
2022-10-18T23:56:49.240Z,102206.94
2022-10-18T23:59:34.646Z,102199.69
